Time;durP1;ratioP1;P1;durP2;ratioP2;P2;SDS_P1;SDS_P2;PMS_P1;PMS_P2;Temp;Humidity;BMP_temperature;BMP_pressure;BME280_temperature;BME280_humidity;BME280_pressure;Samples;Min_cycle;Max_cycle;Signal;HPM_P1;HPM_P2
2023/09/18 00:00:44;;;;;;;19.45;14.00;;;21.30;80.80;;;;;;5058304;28;20025;-69
2023/09/18 00:03:10;;;;;;;17.23;12.93;;;21.30;80.90;;;;;;5058848;28;20025;-69
2023/09/18 00:05:37;;;;;;;19.58;13.65;;;21.30;80.90;;;;;;5058233;28;20036;-69
2023/09/18 00:08:06;;;;;;;17.63;12.77;;;21.30;81.00;;;;;;5058225;28;20151;-69
2023/09/18 00:12:58;;;;;;;19.52;14.48;;;21.30;81.00;;;;;;5057803;28;20128;-69
2023/09/18 00:15:28;;;;;;;19.58;14.18;;;21.30;81.10;;;;;;5058374;28;20036;-69
2023/09/18 00:18:00;;;;;;;19.17;15.05;;;21.30;81.00;;;;;;5058571;28;20024;-69
2023/09/18 00:20:27;;;;;;;19.40;15.00;;;21.30;81.00;;;;;;5057808;28;20044;-68
2023/09/18 00:22:55;;;;;;;19.88;13.85;;;21.20;81.10;;;;;;5058209;28;20431;-69
2023/09/18 00:25:21;;;;;;;17.48;13.05;;;21.20;81.10;;;;;;5057845;28;20040;-69
2023/09/18 00:27:47;;;;;;;19.30;14.25;;;21.20;81.20;;;;;;5057779;28;20048;-69
2023/09/18 00:30:13;;;;;;;16.52;12.70;;;21.20;81.10;;;;;;5040155;28;20021;-69
2023/09/18 00:35:14;;;;;;;17.50;13.68;;;21.20;81.20;;;;;;5058320;28;20082;-69
2023/09/18 00:37:46;;;;;;;20.65;14.25;;;21.20;81.10;;;;;;5057728;28;20021;-69
2023/09/18 00:40:14;;;;;;;18.60;14.25;;;21.10;81.00;;;;;;5057583;28;20481;-69
2023/09/18 00:42:41;;;;;;;20.75;14.32;;;21.00;81.00;;;;;;5058087;28;20024;-69
2023/09/18 00:45:09;;;;;;;19.02;14.02;;;21.00;81.10;;;;;;5057511;28;20482;-69
2023/09/18 00:47:36;;;;;;;20.08;14.25;;;21.00;81.10;;;;;;5057732;28;20029;-69
2023/09/18 00:50:04;;;;;;;18.70;12.95;;;20.90;81.20;;;;;;5057373;28;20028;-69
2023/09/18 00:52:34;;;;;;;19.45;13.63;;;20.90;81.20;;;;;;5057573;28;20136;-69
2023/09/18 00:55:16;;;;;;;19.83;14.30;;;20.90;81.30;;;;;;5057302;28;20055;-69
2023/09/18 00:57:45;;;;;;;18.00;12.52;;;20.90;81.30;;;;;;5057323;28;20043;-69
2023/09/18 01:00:20;;;;;;;20.25;13.88;;;20.90;81.20;;;;;;5057167;28;20032;-69
2023/09/18 01:02:52;;;;;;;16.73;12.77;;;20.90;81.30;;;;;;5057507;28;20354;-69
2023/09/18 01:05:20;;;;;;;18.33;13.18;;;20.80;81.40;;;;;;5057160;28;20029;-69
2023/09/18 01:07:46;;;;;;;19.52;15.32;;;20.80;81.50;;;;;;5057318;28;20036;-69
2023/09/18 01:10:30;;;;;;;22.55;15.50;;;20.80;81.40;;;;;;5056989;28;20116;-69
2023/09/18 01:13:13;;;;;;;24.02;17.00;;;20.80;81.30;;;;;;5056868;28;20071;-68
2023/09/18 01:15:54;;;;;;;23.48;17.48;;;20.80;81.30;;;;;;5056939;28;20036;-69
2023/09/18 01:18:22;;;;;;;22.90;16.15;;;20.80;81.30;;;;;;5057176;28;20025;-68
2023/09/18 01:20:51;;;;;;;21.10;14.55;;;20.80;81.40;;;;;;5056728;28;20070;-68
2023/09/18 01:23:17;;;;;;;21.90;14.63;;;20.70;81.30;;;;;;5056698;28;20518;-69
2023/09/18 01:25:43;;;;;;;20.63;13.55;;;20.70;81.50;;;;;;5057295;28;20074;-69
2023/09/18 01:28:09;;;;;;;17.90;13.45;;;20.70;81.50;;;;;;5057235;28;20037;-69
2023/09/18 01:30:35;;;;;;;21.35;15.75;;;20.70;81.50;;;;;;5057135;28;20124;-69
2023/09/18 01:33:04;;;;;;;21.48;14.32;;;20.70;81.40;;;;;;5057082;28;20312;-69
2023/09/18 01:35:33;;;;;;;21.38;14.52;;;20.60;81.30;;;;;;5056829;28;20040;-69
2023/09/18 01:38:01;;;;;;;25.38;14.02;;;20.60;81.50;;;;;;5057057;28;20539;-69
2023/09/18 01:40:41;;;;;;;29.38;20.45;;;20.60;81.50;;;;;;5056497;28;20439;-68
2023/09/18 01:43:10;;;;;;;30.45;20.10;;;20.50;81.60;;;;;;5056500;28;20052;-69
2023/09/18 01:45:49;;;;;;;21.83;15.45;;;20.50;81.70;;;;;;5056901;28;20107;-68
2023/09/18 01:48:15;;;;;;;20.17;14.30;;;20.40;81.80;;;;;;5056873;28;20471;-69
2023/09/18 01:50:41;;;;;;;22.70;15.95;;;20.40;81.80;;;;;;5056168;28;20111;-69
2023/09/18 01:53:07;;;;;;;23.17;16.80;;;20.40;81.70;;;;;;5056046;28;20039;-69
2023/09/18 01:55:33;;;;;;;25.15;18.33;;;20.40;81.70;;;;;;5056118;28;20111;-69
2023/09/18 01:57:59;;;;;;;25.83;17.65;;;20.40;81.70;;;;;;5056093;28;20018;-69
2023/09/18 02:00:25;;;;;;;24.30;16.92;;;20.40;81.80;;;;;;5056533;28;20040;-69
2023/09/18 02:02:51;;;;;;;20.65;15.00;;;20.30;81.80;;;;;;5056038;28;20017;-69
2023/09/18 02:05:17;;;;;;;20.52;15.00;;;20.30;81.90;;;;;;5055964;28;20040;-69
2023/09/18 02:10:12;;;;;;;18.40;14.27;;;20.30;82.00;;;;;;5056258;28;20423;-69
2023/09/18 02:12:39;;;;;;;20.42;14.18;;;20.30;82.10;;;;;;5055474;28;20037;-69
2023/09/18 02:15:07;;;;;;;21.63;15.20;;;20.30;81.90;;;;;;5038236;28;20028;-69
2023/09/18 02:17:40;;;;;;;25.02;16.48;;;20.20;81.90;;;;;;5055799;28;20021;-69
2023/09/18 02:20:11;;;;;;;16.85;12.82;;;20.30;81.80;;;;;;5056252;28;20040;-69
2023/09/18 02:22:39;;;;;;;18.38;14.18;;;20.30;81.80;;;;;;5055982;28;20091;-69
2023/09/18 02:25:07;;;;;;;20.05;13.80;;;20.30;81.90;;;;;;5055897;28;20028;-69
2023/09/18 02:32:27;;;;;;;14.23;11.23;;;20.30;81.80;;;;;;5056283;28;20025;-69
2023/09/18 02:34:53;;;;;;;17.00;12.32;;;20.30;81.80;;;;;;5055727;28;20018;-69
2023/09/18 02:37:33;;;;;;;16.05;11.55;;;20.20;81.80;;;;;;5055990;28;20021;-68
2023/09/18 02:40:02;;;;;;;18.17;11.43;;;20.30;81.80;;;;;;5055555;28;20332;-69
2023/09/18 02:42:28;;;;;;;16.05;12.02;;;20.20;81.80;;;;;;5055503;28;20064;-69
2023/09/18 02:44:56;;;;;;;17.00;12.20;;;20.20;81.80;;;;;;5055786;28;20100;-69
2023/09/18 02:47:22;;;;;;;16.83;12.43;;;20.30;81.80;;;;;;5055276;28;20064;-69
2023/09/18 02:49:57;;;;;;;16.80;11.55;;;20.20;81.80;;;;;;5055392;28;20052;-69
2023/09/18 02:52:24;;;;;;;16.85;11.60;;;20.20;81.70;;;;;;5055587;28;20024;-69
2023/09/18 02:54:56;;;;;;;13.55;11.07;;;20.20;81.70;;;;;;5054312;28;20553;-68
2023/09/18 02:57:25;;;;;;;15.43;10.73;;;20.20;81.70;;;;;;5037581;28;20032;-69
2023/09/18 02:59:55;;;;;;;16.67;11.38;;;20.20;81.60;;;;;;5055288;28;20021;-68
2023/09/18 03:02:21;;;;;;;15.25;10.52;;;20.20;81.60;;;;;;5055079;28;20033;-68
2023/09/18 03:04:48;;;;;;;17.35;12.38;;;20.20;81.70;;;;;;5055302;28;20035;-69
2023/09/18 03:07:13;;;;;;;16.20;12.02;;;20.20;81.70;;;;;;5054975;28;20459;-69
2023/09/18 03:09:44;;;;;;;16.23;12.90;;;20.20;81.50;;;;;;5054951;28;20024;-69
2023/09/18 03:12:24;;;;;;;15.70;12.02;;;20.10;81.40;;;;;;5053776;28;20052;-68
2023/09/18 03:15:01;;;;;;;16.67;12.52;;;20.10;81.40;;;;;;5054961;28;20029;-69
2023/09/18 03:17:32;;;;;;;14.68;11.40;;;20.00;81.40;;;;;;5054959;28;20025;-68
2023/09/18 03:19:58;;;;;;;16.52;10.93;;;20.00;81.60;;;;;;5055060;28;20032;-68
2023/09/18 03:22:32;;;;;;;17.15;12.40;;;20.00;81.70;;;;;;5055396;28;20021;-69
2023/09/18 03:24:58;;;;;;;17.83;11.60;;;20.00;81.60;;;;;;5055405;28;20048;-69
2023/09/18 03:27:28;;;;;;;14.93;10.93;;;20.00;81.60;;;;;;5054860;28;20025;-69
2023/09/18 03:32:19;;;;;;;15.07;10.50;;;19.90;81.70;;;;;;5055310;28;20018;-68
2023/09/18 03:34:46;;;;;;;17.33;12.25;;;19.90;81.70;;;;;;5054769;28;20028;-69
2023/09/18 03:37:12;;;;;;;15.48;10.60;;;20.00;81.70;;;;;;5054772;28;20021;-69
2023/09/18 03:39:39;;;;;;;14.85;11.20;;;19.90;81.70;;;;;;5054752;28;20143;-69
2023/09/18 03:42:05;;;;;;;15.98;11.82;;;19.90;81.60;;;;;;5054717;28;20021;-69
2023/09/18 03:44:32;;;;;;;20.67;14.40;;;19.90;81.60;;;;;;5054988;28;20033;-69
2023/09/18 03:46:58;;;;;;;21.42;15.15;;;19.90;82.00;;;;;;5054645;28;20036;-69
2023/09/18 03:49:24;;;;;;;23.10;12.85;;;19.90;81.70;;;;;;5054713;28;20025;-69
2023/09/18 03:51:50;;;;;;;16.83;12.05;;;19.90;81.70;;;;;;5054466;28;20385;-69
2023/09/18 03:54:16;;;;;;;16.23;12.32;;;19.90;81.70;;;;;;5054625;28;20053;-69
2023/09/18 03:56:42;;;;;;;19.85;16.25;;;19.90;81.60;;;;;;5054835;28;20021;-69
2023/09/18 03:59:09;;;;;;;17.00;12.43;;;19.90;82.00;;;;;;5054723;28;20037;-68
2023/09/18 04:01:35;;;;;;;16.15;11.70;;;19.90;81.90;;;;;;5055058;28;20036;-69
2023/09/18 04:04:02;;;;;;;19.02;11.80;;;19.90;81.90;;;;;;5054512;28;20589;-69
2023/09/18 04:06:46;;;;;;;18.10;11.50;;;19.90;82.00;;;;;;5056186;28;20033;-69
2023/09/18 04:09:18;;;;;;;15.23;11.80;;;19.90;81.90;;;;;;5040491;28;20120;-69
2023/09/18 04:11:44;;;;;;;14.55;11.10;;;19.90;81.90;;;;;;5057753;28;20075;-69
2023/09/18 04:14:10;;;;;;;16.45;12.18;;;20.00;81.80;;;;;;5058357;28;20021;-69
2023/09/18 04:19:04;;;;;;;14.52;11.13;;;20.00;81.90;;;;;;5058452;28;20021;-69
2023/09/18 04:21:30;;;;;;;12.82;10.65;;;20.10;81.90;;;;;;5040345;28;20036;-69
2023/09/18 04:24:04;;;;;;;15.10;11.25;;;20.10;81.90;;;;;;5057879;28;20029;-69
2023/09/18 04:26:33;;;;;;;15.05;11.13;;;20.20;81.90;;;;;;5058359;28;20096;-69
2023/09/18 04:29:02;;;;;;;16.13;12.38;;;20.20;81.70;;;;;;5057870;28;20373;-69
2023/09/18 04:31:28;;;;;;;15.88;11.23;;;20.20;81.60;;;;;;5058169;28;20040;-69
2023/09/18 04:33:57;;;;;;;13.68;10.48;;;20.30;81.70;;;;;;5040053;28;20397;-68
2023/09/18 04:36:24;;;;;;;15.68;11.60;;;20.20;81.80;;;;;;5057837;28;20498;-69
2023/09/18 04:38:53;;;;;;;17.77;12.10;;;20.30;81.80;;;;;;5057425;28;20104;-69
2023/09/18 04:41:23;;;;;;;15.90;11.25;;;20.40;81.90;;;;;;5057479;28;20066;-68
2023/09/18 04:43:50;;;;;;;17.35;11.52;;;20.40;81.80;;;;;;5057192;28;20029;-69
2023/09/18 04:46:23;;;;;;;17.40;11.90;;;20.40;81.80;;;;;;5056124;28;20108;-69
2023/09/18 04:48:50;;;;;;;21.92;15.00;;;20.40;81.80;;;;;;5058310;28;20108;-69
2023/09/18 04:51:16;;;;;;;17.17;11.77;;;20.40;81.90;;;;;;5057254;28;20025;-69
2023/09/18 04:53:42;;;;;;;16.02;11.68;;;20.40;81.90;;;;;;5057835;28;20033;-69
2023/09/18 04:56:10;;;;;;;17.13;11.98;;;20.40;81.90;;;;;;5057092;28;20025;-68
2023/09/18 04:58:39;;;;;;;16.63;12.40;;;20.50;81.90;;;;;;5057067;28;20033;-68
2023/09/18 05:01:08;;;;;;;18.48;13.32;;;20.50;81.90;;;;;;5057409;28;20029;-68
2023/09/18 05:06:00;;;;;;;15.95;12.18;;;20.60;82.00;;;;;;5057648;28;20300;-69
2023/09/18 05:08:28;;;;;;;16.08;11.80;;;20.60;82.00;;;;;;5056957;28;20079;-71
2023/09/18 05:11:01;;;;;;;14.60;11.40;;;20.60;82.00;;;;;;5056947;28;20029;-69
2023/09/18 05:13:28;;;;;;;16.25;12.15;;;20.70;82.00;;;;;;5056748;28;20383;-69
2023/09/18 05:16:00;;;;;;;16.95;12.23;;;20.70;81.90;;;;;;5056826;28;20071;-69
2023/09/18 05:18:31;;;;;;;19.27;12.37;;;20.70;81.90;;;;;;5055758;28;20029;-68
2023/09/18 05:20:59;;;;;;;17.73;11.75;;;20.70;81.90;;;;;;5056754;28;20100;-68
2023/09/18 05:23:33;;;;;;;17.80;12.25;;;20.80;81.90;;;;;;5057213;28;20402;-69
2023/09/18 05:26:00;;;;;;;17.55;12.10;;;20.80;81.80;;;;;;5056643;28;20025;-69
2023/09/18 05:28:27;;;;;;;16.38;12.20;;;20.80;81.90;;;;;;5056570;28;20037;-68
2023/09/18 05:30:59;;;;;;;15.43;11.90;;;20.90;81.90;;;;;;5056861;28;20056;-68
2023/09/18 05:33:25;;;;;;;20.42;12.65;;;20.90;81.90;;;;;;5056471;28;20563;-69
2023/09/18 05:35:52;;;;;;;17.52;12.23;;;20.90;82.00;;;;;;5056681;28;20025;-69
2023/09/18 05:38:18;;;;;;;16.20;12.52;;;20.90;81.90;;;;;;5056467;28;20025;-69
2023/09/18 05:40:45;;;;;;;17.95;12.45;;;21.00;81.80;;;;;;5056353;28;20096;-69
2023/09/18 05:43:15;;;;;;;18.13;12.80;;;21.00;81.80;;;;;;5056313;28;20044;-68
2023/09/18 05:45:42;;;;;;;20.02;13.02;;;21.00;81.80;;;;;;5056829;28;20427;-69
2023/09/18 05:48:08;;;;;;;19.50;13.85;;;21.10;81.80;;;;;;5056251;28;20037;-69
2023/09/18 05:50:40;;;;;;;20.02;13.68;;;21.10;81.80;;;;;;5056056;28;20033;-68
2023/09/18 05:53:07;;;;;;;24.15;14.68;;;21.10;81.70;;;;;;5056025;28;20454;-68
2023/09/18 05:55:38;;;;;;;21.90;14.48;;;21.10;81.70;;;;;;5056015;28;20021;-69
2023/09/18 06:00:33;;;;;;;22.90;16.20;;;21.10;81.70;;;;;;5056017;28;20439;-68
2023/09/18 06:07:50;;;;;;;20.80;14.48;;;21.20;81.60;;;;;;5056438;28;20112;-69
2023/09/18 06:10:18;;;;;;;19.52;13.82;;;21.20;81.50;;;;;;5055828;28;20039;-69
2023/09/18 06:12:47;;;;;;;22.95;14.45;;;21.20;81.40;;;;;;5034655;28;20371;-69
2023/09/18 06:15:14;;;;;;;23.13;16.42;;;21.30;81.40;;;;;;5035317;28;20025;-69
2023/09/18 06:17:45;;;;;;;23.55;15.52;;;21.40;81.50;;;;;;5035758;28;20309;-69
2023/09/18 06:20:15;;;;;;;24.45;16.08;;;21.40;81.20;;;;;;5035762;28;20450;-68
2023/09/18 06:22:45;;;;;;;21.55;15.50;;;21.50;81.20;;;;;;5036308;28;20371;-68
2023/09/18 06:25:11;;;;;;;23.23;15.00;;;21.50;81.20;;;;;;5035737;28;20021;-68
2023/09/18 06:27:38;;;;;;;24.23;14.65;;;21.60;81.20;;;;;;5034754;28;20570;-69
2023/09/18 06:30:07;;;;;;;23.70;16.38;;;21.70;81.00;;;;;;5034506;28;20032;-68
2023/09/18 06:32:36;;;;;;;29.77;18.13;;;21.70;80.90;;;;;;5035839;28;20055;-69
2023/09/18 06:35:03;;;;;;;22.33;15.45;;;21.70;80.80;;;;;;5033629;28;20026;-68
2023/09/18 06:37:58;;;;;;;19.85;15.23;;;21.80;80.70;;;;;;5035415;28;20053;-69
2023/09/18 06:40:25;;;;;;;20.83;15.20;;;21.80;80.70;;;;;;5035258;28;20068;-69
2023/09/18 06:42:54;;;;;;;21.40;15.40;;;21.80;80.70;;;;;;5035754;28;20435;-69
2023/09/18 06:45:20;;;;;;;24.40;15.82;;;21.90;80.50;;;;;;5035480;28;20339;-69
2023/09/18 06:47:46;;;;;;;26.73;17.05;;;21.90;80.50;;;;;;5035768;28;20436;-69
2023/09/18 06:50:12;;;;;;;23.38;16.88;;;21.90;80.40;;;;;;5035224;28;20154;-69
2023/09/18 06:52:38;;;;;;;22.60;16.00;;;21.90;80.30;;;;;;5034858;28;20048;-69
2023/09/18 06:55:09;;;;;;;21.20;15.35;;;21.90;80.30;;;;;;5035191;28;20109;-68
2023/09/18 07:00:05;;;;;;;22.05;15.73;;;22.00;80.50;;;;;;5035422;28;20032;-69
2023/09/18 07:02:31;;;;;;;18.55;12.95;;;22.00;80.50;;;;;;5035037;28;20065;-69
2023/09/18 07:04:57;;;;;;;21.25;15.05;;;22.10;80.40;;;;;;5035108;28;20053;-69
2023/09/18 07:07:25;;;;;;;17.65;13.48;;;22.20;80.30;;;;;;5035033;28;20105;-68
2023/09/18 07:09:53;;;;;;;22.25;15.45;;;22.20;80.20;;;;;;5034877;28;20040;-68
2023/09/18 07:12:19;;;;;;;19.58;14.10;;;22.30;80.10;;;;;;5039893;28;20052;-69
2023/09/18 07:14:47;;;;;;;19.88;14.15;;;22.40;80.00;;;;;;5055501;28;20036;-68
2023/09/18 07:17:14;;;;;;;18.92;14.45;;;22.40;79.90;;;;;;5054976;28;20055;-69
2023/09/18 07:19:42;;;;;;;23.50;17.00;;;22.50;79.80;;;;;;5055309;28;20031;-68
2023/09/18 07:22:19;;;;;;;22.10;14.77;;;22.50;79.60;;;;;;5054752;28;20053;-69
2023/09/18 07:27:11;;;;;;;22.88;15.50;;;22.50;79.50;;;;;;5055399;28;20475;-68
2023/09/18 07:29:37;;;;;;;24.40;17.23;;;22.50;79.40;;;;;;5055291;28;20450;-69
2023/09/18 07:32:04;;;;;;;23.48;17.10;;;22.50;79.30;;;;;;5054989;28;20444;-69
2023/09/18 07:34:30;;;;;;;21.13;15.90;;;22.50;79.30;;;;;;5055049;28;20025;-69
2023/09/18 07:36:56;;;;;;;23.60;17.17;;;22.50;79.20;;;;;;5055041;28;20025;-68
2023/09/18 07:39:22;;;;;;;23.13;16.27;;;22.50;79.30;;;;;;5054622;28;20017;-69
2023/09/18 07:41:48;;;;;;;23.80;17.10;;;22.50;79.30;;;;;;5056574;28;20136;-69
2023/09/18 07:44:21;;;;;;;23.67;17.60;;;22.60;79.10;;;;;;5058625;28;20063;-68
2023/09/18 07:46:47;;;;;;;;;;;22.60;79.10;;;;;;5059021;28;20025;-68
2023/09/18 07:49:16;;;;;;;25.35;17.08;;;22.60;79.20;;;;;;5058442;28;20282;-69
2023/09/18 07:51:44;;;;;;;24.20;16.67;;;22.70;79.00;;;;;;5058933;28;20021;-69
2023/09/18 07:54:13;;;;;;;22.00;16.60;;;22.70;79.00;;;;;;5058430;28;20025;-69
2023/09/18 07:56:40;;;;;;;18.85;14.55;;;22.80;78.70;;;;;;5058397;28;20048;-69
2023/09/18 07:59:06;;;;;;;20.98;15.38;;;22.80;78.50;;;;;;5058229;28;20035;-69
2023/09/18 08:01:34;;;;;;;21.55;15.55;;;22.90;78.10;;;;;;5058833;28;20092;-69
2023/09/18 08:04:03;;;;;;;22.95;15.77;;;23.00;78.10;;;;;;5058159;28;20029;-69
2023/09/18 08:06:29;;;;;;;19.70;14.75;;;23.10;78.00;;;;;;5058245;28;20047;-69
2023/09/18 08:11:20;;;;;;;22.95;16.77;;;23.40;77.30;;;;;;5058733;28;20115;-68
2023/09/18 08:13:46;;;;;;;20.50;15.13;;;23.40;76.80;;;;;;5056797;28;20083;-68
2023/09/18 08:16:13;;;;;;;22.42;15.30;;;23.40;76.40;;;;;;5056011;28;20080;-68
2023/09/18 08:18:49;;;;;;;21.75;15.30;;;23.50;76.20;;;;;;5056887;28;20033;-69
2023/09/18 08:21:19;;;;;;;21.58;15.05;;;23.50;76.20;;;;;;5057879;28;20049;-68
2023/09/18 08:23:46;;;;;;;22.90;16.17;;;23.70;76.30;;;;;;5057812;28;20029;-68
2023/09/18 08:26:15;;;;;;;20.23;15.05;;;23.90;76.20;;;;;;5040314;28;20367;-68
2023/09/18 08:28:43;;;;;;;23.95;17.02;;;24.20;75.70;;;;;;5057667;28;20081;-67
2023/09/18 08:31:18;;;;;;;23.88;15.95;;;24.50;74.90;;;;;;5057675;28;20068;-67
2023/09/18 08:33:45;;;;;;;19.15;14.20;;;24.80;74.40;;;;;;5058198;28;20435;-68
2023/09/18 08:36:12;;;;;;;21.98;15.27;;;24.90;74.20;;;;;;5057642;28;20025;-69
2023/09/18 08:38:38;;;;;;;22.50;14.90;;;25.10;73.60;;;;;;5058130;28;20079;-68
2023/09/18 08:41:09;;;;;;;24.50;15.93;;;25.30;73.20;;;;;;5057848;28;20444;-68
2023/09/18 08:43:43;;;;;;;28.27;18.38;;;25.50;72.60;;;;;;5057510;28;20059;-68
2023/09/18 08:46:09;;;;;;;31.35;19.33;;;25.70;71.50;;;;;;5058038;28;20079;-68
2023/09/18 08:48:39;;;;;;;26.55;16.65;;;25.60;71.20;;;;;;5057372;28;20021;-69
2023/09/18 08:51:10;;;;;;;27.90;17.27;;;25.60;72.00;;;;;;5057917;28;20024;-68
2023/09/18 08:53:37;;;;;;;21.63;15.85;;;25.60;71.80;;;;;;5056516;28;20025;-70
2023/09/18 08:56:09;;;;;;;26.77;17.60;;;25.50;72.00;;;;;;5057816;28;20067;-68
2023/09/18 08:58:40;;;;;;;26.48;17.98;;;25.40;72.30;;;;;;5057702;28;20025;-68
2023/09/18 09:01:10;;;;;;;22.73;15.15;;;25.30;72.60;;;;;;5057465;28;20466;-69
2023/09/18 09:03:39;;;;;;;26.55;16.40;;;25.30;72.90;;;;;;5057687;28;20025;-67
2023/09/18 09:06:09;;;;;;;21.92;15.15;;;25.30;73.10;;;;;;5057689;28;20083;-68
2023/09/18 09:08:38;;;;;;;22.27;15.10;;;25.30;73.20;;;;;;5056923;28;20053;-69
2023/09/18 09:11:04;;;;;;;20.63;14.45;;;25.30;73.30;;;;;;5057548;28;20052;-68
2023/09/18 09:13:32;;;;;;;23.88;15.90;;;25.40;73.40;;;;;;5056857;28;20053;-69
2023/09/18 09:18:29;;;;;;;21.20;15.35;;;25.40;73.30;;;;;;5057470;28;20025;-68
2023/09/18 09:20:58;;;;;;;25.73;15.30;;;25.30;73.50;;;;;;5057115;28;20071;-69
2023/09/18 09:23:29;;;;;;;25.92;18.50;;;25.20;73.70;;;;;;5039719;28;20082;-68
2023/09/18 09:26:15;;;;;;;22.55;16.20;;;25.00;73.70;;;;;;5057357;28;20053;-69
2023/09/18 09:28:43;;;;;;;23.77;17.83;;;24.90;74.20;;;;;;5057137;28;20044;-68
2023/09/18 09:31:13;;;;;;;24.98;17.40;;;24.80;74.50;;;;;;5039241;28;20459;-69
2023/09/18 09:34:05;;;;;;;24.50;18.13;;;24.80;74.70;;;;;;5039001;28;20059;-69
2023/09/18 09:36:34;;;;;;;25.95;18.58;;;24.70;74.90;;;;;;5057136;28;20367;-68
2023/09/18 09:39:05;;;;;;;26.98;17.13;;;24.70;75.10;;;;;;5056430;28;20028;-68
2023/09/18 09:41:33;;;;;;;25.80;17.30;;;24.60;75.30;;;;;;5056426;28;20025;-68
2023/09/18 09:43:59;;;;;;;30.10;19.85;;;24.60;75.40;;;;;;5056568;28;20036;-68
2023/09/18 09:46:25;;;;;;;26.52;17.95;;;24.60;75.60;;;;;;5056718;28;20518;-68
2023/09/18 09:49:02;;;;;;;24.35;16.65;;;24.50;75.80;;;;;;5056261;28;20048;-68
2023/09/18 09:51:29;;;;;;;27.15;18.48;;;24.50;75.90;;;;;;5038743;28;20021;-68
2023/09/18 09:54:08;;;;;;;24.13;17.02;;;24.50;76.00;;;;;;5056501;28;20029;-69
2023/09/18 09:56:50;;;;;;;27.15;17.65;;;24.50;76.20;;;;;;5056239;28;20036;-68
2023/09/18 10:01:44;;;;;;;24.25;16.27;;;24.60;76.00;;;;;;5056676;28;20432;-68
2023/09/18 10:04:17;;;;;;;25.70;17.27;;;24.70;75.90;;;;;;5038344;28;20021;-68
2023/09/18 10:06:47;;;;;;;21.20;15.77;;;24.80;75.70;;;;;;5056630;28;20423;-68
2023/09/18 10:09:15;;;;;;;23.80;17.08;;;24.90;75.60;;;;;;5056426;28;20028;-69
2023/09/18 10:11:45;;;;;;;26.83;17.35;;;24.90;75.50;;;;;;5038626;28;20032;-68
2023/09/18 10:14:17;;;;;;;25.30;17.40;;;24.90;75.20;;;;;;5055684;28;20049;-68
2023/09/18 10:17:31;;;;;;;24.13;17.17;;;24.90;75.20;;;;;;5055796;28;20036;-69
2023/09/18 10:20:19;;;;;;;;;;;24.90;75.30;;;;;;5050788;28;20064;-69
2023/09/18 10:23:01;;;;;;;20.80;15.50;;;24.80;75.40;;;;;;5055699;28;20330;-69
2023/09/18 10:25:31;;;;;;;24.77;16.80;;;24.80;75.40;;;;;;5056010;28;20148;-69
2023/09/18 10:27:58;;;;;;;26.90;18.00;;;24.70;75.50;;;;;;5055856;28;20082;-68
2023/09/18 10:30:26;;;;;;;23.38;15.13;;;24.60;75.60;;;;;;5055543;28;20036;-68
2023/09/18 10:32:53;;;;;;;24.00;16.17;;;24.60;75.70;;;;;;5055704;28;20096;-68
2023/09/18 10:35:23;;;;;;;23.90;15.40;;;24.50;75.90;;;;;;5055803;28;20025;-68
2023/09/18 10:37:53;;;;;;;20.73;14.35;;;24.40;76.10;;;;;;5055995;28;20025;-69
2023/09/18 10:42:50;;;;;;;22.70;14.85;;;24.40;76.30;;;;;;5056024;28;20025;-68
2023/09/18 10:45:17;;;;;;;20.38;14.15;;;24.30;76.40;;;;;;5055299;28;20060;-68
2023/09/18 10:47:56;;;;;;;21.58;14.25;;;24.30;76.50;;;;;;5055225;28;20025;-68
2023/09/18 10:50:26;;;;;;;23.52;16.85;;;24.20;76.60;;;;;;5055159;28;20350;-68
2023/09/18 10:52:52;;;;;;;20.73;13.65;;;24.20;76.70;;;;;;5055710;28;20020;-68
2023/09/18 10:55:24;;;;;;;24.67;16.02;;;24.20;76.70;;;;;;5055759;28;20025;-68
2023/09/18 10:57:59;;;;;;;29.47;18.60;;;24.20;76.80;;;;;;5055145;28;20029;-69
2023/09/18 11:00:29;;;;;;;21.17;15.35;;;24.20;77.00;;;;;;5055644;28;20025;-68
2023/09/18 11:03:13;;;;;;;23.02;15.60;;;24.30;77.00;;;;;;5037581;28;20087;-69
2023/09/18 11:05:41;;;;;;;23.50;16.35;;;24.40;76.90;;;;;;5055229;28;20107;-67
2023/09/18 11:08:27;;;;;;;24.02;17.23;;;24.40;76.70;;;;;;5037495;28;20402;-69
2023/09/18 11:10:56;;;;;;;25.92;17.15;;;24.50;76.70;;;;;;5055001;28;20025;-68
2023/09/18 11:18:48;;;;;;;22.90;15.60;;;24.70;76.20;;;;;;5059702;28;20108;-68
2023/09/18 11:21:17;;;;;;;23.25;17.83;;;24.80;76.10;;;;;;5059073;28;20025;-68
2023/09/18 11:24:01;;;;;;;24.20;17.05;;;24.90;75.40;;;;;;5059636;28;20029;-69
2023/09/18 11:29:31;;;;;;;23.90;16.95;;;24.90;75.20;;;;;;5059420;28;20061;-68
2023/09/18 11:32:01;;;;;;;;;;;24.90;75.40;;;;;;5059230;28;20029;-69
2023/09/18 11:34:52;;;;;;;23.92;15.93;;;25.00;74.90;;;;;;5059585;28;19904;-69
2023/09/18 11:37:33;;;;;;;22.13;15.20;;;25.00;74.90;;;;;;5058592;28;20040;-68
2023/09/18 11:40:04;;;;;;;18.97;14.37;;;25.00;75.00;;;;;;5058759;28;20100;-68
2023/09/18 11:42:32;;;;;;;24.17;16.35;;;25.10;75.10;;;;;;5058660;28;20506;-69
2023/09/18 11:44:59;;;;;;;16.77;12.68;;;25.20;75.30;;;;;;5058599;28;20029;-69
2023/09/18 11:50:11;;;;;;;21.10;15.05;;;25.40;75.00;;;;;;5058911;28;20103;-68
2023/09/18 11:52:40;;;;;;;17.00;12.57;;;25.40;74.70;;;;;;5058750;28;20029;-68
2023/09/18 11:57:35;;;;;;;18.33;13.70;;;25.40;74.70;;;;;;5059012;28;20029;-69
2023/09/18 12:00:11;;;;;;;19.02;13.52;;;25.50;74.70;;;;;;5024304;28;20468;-68
2023/09/18 12:02:48;;;;;;;20.05;15.40;;;25.50;74.50;;;;;;5055788;28;20097;-68
2023/09/18 12:05:15;;;;;;;19.88;15.85;;;25.60;74.60;;;;;;5058258;28;20090;-68
2023/09/18 12:07:46;;;;;;;20.70;15.18;;;25.60;74.40;;;;;;5058215;28;20029;-68
2023/09/18 12:10:20;;;;;;;20.35;16.23;;;25.60;74.30;;;;;;5040565;28;20478;-67
2023/09/18 12:12:47;;;;;;;21.70;14.63;;;25.70;73.90;;;;;;5057798;28;20115;-69
2023/09/18 12:17:55;;;;;;;20.98;14.77;;;25.90;73.70;;;;;;5058872;28;20031;-69
2023/09/18 12:20:26;;;;;;;21.17;15.02;;;26.00;73.60;;;;;;5040524;28;20025;-68
2023/09/18 12:22:53;;;;;;;20.30;14.73;;;26.00;72.90;;;;;;5058487;28;20025;-68
2023/09/18 12:25:23;;;;;;;21.02;14.93;;;26.00;73.10;;;;;;5057852;28;20393;-68
2023/09/18 12:27:54;;;;;;;19.23;14.07;;;26.10;73.00;;;;;;5058067;28;20025;-69
2023/09/18 12:30:26;;;;;;;19.40;13.82;;;26.00;72.70;;;;;;5040234;28;20052;-68
2023/09/18 12:32:57;;;;;;;19.98;13.63;;;26.10;72.30;;;;;;5057529;28;20040;-68
2023/09/18 12:35:31;;;;;;;17.00;12.80;;;26.10;72.30;;;;;;5057994;28;20024;-68
2023/09/18 12:38:00;;;;;;;15.27;10.95;;;26.10;72.40;;;;;;5057657;28;20116;-69
2023/09/18 12:40:34;;;;;;;16.92;12.82;;;26.00;72.50;;;;;;5057517;28;20025;-69
2023/09/18 12:43:01;;;;;;;18.20;13.43;;;26.00;72.50;;;;;;5057897;28;20083;-69
2023/09/18 12:45:30;;;;;;;15.75;11.48;;;25.90;72.20;;;;;;5058309;28;20051;-68
2023/09/18 12:47:57;;;;;;;14.05;10.68;;;25.90;72.40;;;;;;5057495;28;20036;-69
2023/09/18 12:50:25;;;;;;;14.68;10.88;;;25.90;72.60;;;;;;5057323;28;20083;-68
2023/09/18 12:52:51;;;;;;;17.58;10.80;;;26.00;72.60;;;;;;5039930;28;20021;-69
2023/09/18 12:55:27;;;;;;;15.50;11.05;;;26.00;72.50;;;;;;5057895;28;20025;-69
2023/09/18 12:57:54;;;;;;;12.73;9.63;;;26.00;72.30;;;;;;5057520;28;20029;-68
2023/09/18 13:00:23;;;;;;;14.70;10.43;;;26.00;72.40;;;;;;5057187;28;20033;-69
2023/09/18 13:02:54;;;;;;;14.18;10.63;;;26.10;72.20;;;;;;5057222;28;20021;-68
2023/09/18 13:05:25;;;;;;;12.75;10.32;;;26.10;72.00;;;;;;5057148;28;20064;-69
2023/09/18 13:07:53;;;;;;;16.42;11.65;;;26.10;71.90;;;;;;5040637;28;20033;-70
2023/09/18 13:10:21;;;;;;;16.15;11.50;;;26.10;71.90;;;;;;5057258;28;20060;-68
2023/09/18 13:12:53;;;;;;;15.80;11.13;;;26.10;72.00;;;;;;5056352;28;20045;-68
2023/09/18 13:15:27;;;;;;;16.80;11.60;;;26.10;72.10;;;;;;5039399;28;20029;-68
2023/09/18 13:17:54;;;;;;;16.42;12.35;;;26.20;71.90;;;;;;5056823;28;20025;-68
2023/09/18 13:20:31;;;;;;;18.02;13.25;;;26.10;71.60;;;;;;5056811;28;20630;-68
2023/09/18 13:23:03;;;;;;;17.73;12.27;;;26.10;71.50;;;;;;5057647;28;20106;-69
2023/09/18 13:25:34;;;;;;;18.33;14.38;;;26.20;71.60;;;;;;5056779;28;20366;-69
2023/09/18 13:28:01;;;;;;;17.98;12.80;;;26.20;71.40;;;;;;5057057;28;20082;-69
2023/09/18 13:30:28;;;;;;;19.73;13.30;;;26.30;71.50;;;;;;5056857;28;20032;-69
2023/09/18 13:33:15;;;;;;;14.10;11.00;;;26.30;71.30;;;;;;5056592;28;20028;-69
2023/09/18 13:35:55;;;;;;;17.75;12.82;;;26.30;71.40;;;;;;5056561;28;20474;-68
2023/09/18 13:38:22;;;;;;;16.30;11.07;;;26.40;70.60;;;;;;5056266;28;20410;-69